createdAt,value
2022-08-05T00:01:25.216Z,2.05
2022-08-05T00:04:29.827Z,2.20
2022-08-05T00:08:00.914Z,2.10
2022-08-05T00:10:53.782Z,2.50
2022-08-05T00:13:55.316Z,2.30
2022-08-05T00:16:57.501Z,2.08
2022-08-05T00:20:02.377Z,1.58
2022-08-05T00:23:12.559Z,2.20
2022-08-05T00:26:16.440Z,2.20
2022-08-05T00:29:18.009Z,1.70
2022-08-05T00:32:19.798Z,1.67
2022-08-05T00:35:21.314Z,1.77
2022-08-05T00:38:35.110Z,1.92
2022-08-05T00:41:46.806Z,2.15
2022-08-05T00:44:54.969Z,2.30
2022-08-05T00:48:05.142Z,1.80
2022-08-05T00:51:49.925Z,2.20
2022-08-05T00:54:30.175Z,1.98
2022-08-05T00:57:38.428Z,2.08
2022-08-05T01:00:53.457Z,2.40
2022-08-05T01:03:55.476Z,2.28
2022-08-05T01:06:57.214Z,1.80
2022-08-05T01:10:01.637Z,1.92
2022-08-05T01:13:13.220Z,3.00
2022-08-05T01:16:32.762Z,3.30
2022-08-05T01:20:02.690Z,2.92
2022-08-05T01:23:53.058Z,2.55
2022-08-05T01:27:19.174Z,1.92
2022-08-05T01:30:34.470Z,2.28
2022-08-05T01:33:49.298Z,2.17
2022-08-05T01:37:04.003Z,2.33
2022-08-05T01:40:08.414Z,1.70
2022-08-05T01:43:22.449Z,1.85
2022-08-05T01:46:42.646Z,1.75
2022-08-05T01:50:02.094Z,2.45
2022-08-05T01:53:08.365Z,1.98
2022-08-05T01:58:13.082Z,1.98
2022-08-05T01:59:40.387Z,1.60
2022-08-05T02:02:54.427Z,1.90
2022-08-05T02:05:59.925Z,1.80
2022-08-05T02:09:03.504Z,1.80
2022-08-05T02:12:12.422Z,1.90
2022-08-05T02:15:22.122Z,1.75
2022-08-05T02:18:34.850Z,1.63
2022-08-05T02:21:46.818Z,1.70
2022-08-05T02:24:55.743Z,1.73
2022-08-05T02:28:00.494Z,1.60
2022-08-05T02:31:07.433Z,1.40
2022-08-05T02:34:13.649Z,1.20
2022-08-05T02:37:16.249Z,1.55
2022-08-05T02:40:22.898Z,1.75
2022-08-05T02:43:27.430Z,1.77
2022-08-05T02:46:30.905Z,1.20
2022-08-05T02:49:41.841Z,1.05
2022-08-05T02:52:46.797Z,1.60
2022-08-05T02:55:54.454Z,2.10
2022-08-05T02:58:59.886Z,1.65
2022-08-05T03:02:02.758Z,1.90
2022-08-05T03:08:11.134Z,1.20
2022-08-05T03:11:54.998Z,1.73
2022-08-05T03:14:48.172Z,2.05
2022-08-05T03:20:58.248Z,1.70
2022-08-05T03:24:00.687Z,1.90
2022-08-05T03:27:06.771Z,1.90
2022-08-05T03:30:09.279Z,1.50
2022-08-05T03:33:11.295Z,1.63
2022-08-05T03:36:14.211Z,1.75
2022-08-05T03:39:20.173Z,2.00
2022-08-05T03:42:32.825Z,1.85
2022-08-05T03:45:58.170Z,1.73
2022-08-05T03:49:01.789Z,1.88
2022-08-05T03:52:50.200Z,2.22
2022-08-05T03:56:09.995Z,2.05
2022-08-05T03:59:01.920Z,1.80
2022-08-05T04:02:04.569Z,1.70
2022-08-05T04:05:10.189Z,1.85
2022-08-05T04:08:14.696Z,1.60
2022-08-05T04:11:47.265Z,1.70
2022-08-05T04:14:52.487Z,1.75
2022-08-05T04:17:56.610Z,1.55
2022-08-05T04:20:59.157Z,1.20
2022-08-05T04:24:06.187Z,1.70
2022-08-05T04:27:08.879Z,1.88
2022-08-05T04:30:10.726Z,2.13
2022-08-05T04:33:13.343Z,2.15
2022-08-05T04:36:44.707Z,1.67
2022-08-05T04:39:37.244Z,1.77
2022-08-05T04:42:38.808Z,1.25
2022-08-05T04:45:48.987Z,2.10
2022-08-05T04:48:58.653Z,1.92
2022-08-05T04:52:00.793Z,1.88
2022-08-05T04:55:13.963Z,2.20
2022-08-05T04:58:20.171Z,2.28
2022-08-05T05:02:05.445Z,1.65
2022-08-05T05:04:48.074Z,2.00
2022-08-05T05:07:56.379Z,1.92
2022-08-05T05:11:02.507Z,1.48
2022-08-05T05:14:04.311Z,2.72
2022-08-05T05:17:10.172Z,2.03
2022-08-05T05:20:13.271Z,2.20
2022-08-05T05:23:19.998Z,2.15
2022-08-05T05:26:28.611Z,2.15
2022-08-05T05:30:04.624Z,2.42
2022-08-05T05:32:56.260Z,2.10
2022-08-05T05:35:58.028Z,2.03
2022-08-05T05:39:03.542Z,2.30
2022-08-05T05:42:06.023Z,1.90
2022-08-05T05:45:09.185Z,2.42
2022-08-05T05:48:10.740Z,1.88
2022-08-05T05:51:22.904Z,1.92
2022-08-05T05:54:49.763Z,2.05
2022-08-05T05:57:52.690Z,2.47
2022-08-05T06:00:54.957Z,2.20
2022-08-05T06:04:02.071Z,2.80
2022-08-05T06:07:05.521Z,2.92
2022-08-05T06:10:10.460Z,3.10
2022-08-05T06:13:12.750Z,3.00
2022-08-05T06:16:30.167Z,2.80
2022-08-05T06:19:34.882Z,2.75
2022-08-05T06:22:37.130Z,2.58
2022-08-05T06:26:12.293Z,3.42
2022-08-05T06:29:25.551Z,2.75
2022-08-05T06:32:28.890Z,2.92
2022-08-05T06:36:06.906Z,2.85
2022-08-05T06:38:54.605Z,2.75
2022-08-05T06:42:04.007Z,2.20
2022-08-05T06:45:08.899Z,2.22
2022-08-05T06:48:52.475Z,1.83
2022-08-05T06:54:37.543Z,2.33
2022-08-05T06:58:03.982Z,2.55
2022-08-05T07:01:02.334Z,2.13
2022-08-05T07:04:04.043Z,1.75
2022-08-05T07:07:07.819Z,2.20
2022-08-05T07:10:10.548Z,2.50
2022-08-05T07:13:58.488Z,2.00
2022-08-05T07:17:58.200Z,1.75
2022-08-05T07:20:39.091Z,1.80
2022-08-05T07:23:40.731Z,2.10
2022-08-05T07:26:52.461Z,2.25
2022-08-05T07:30:27.678Z,1.80
2022-08-05T07:33:17.056Z,2.00
2022-08-05T07:36:20.689Z,1.80
2022-08-05T07:40:03.706Z,1.70
2022-08-05T07:42:45.052Z,1.80
2022-08-05T07:45:57.317Z,1.88
2022-08-05T07:49:05.436Z,1.77
2022-08-05T07:52:07.976Z,1.83
2022-08-05T07:55:15.796Z,1.80
2022-08-05T07:58:54.976Z,1.60
2022-08-05T08:01:57.650Z,1.70
2022-08-05T08:05:01.290Z,1.50
2022-08-05T08:08:02.915Z,1.73
2022-08-05T08:11:04.591Z,1.48
2022-08-05T08:14:10.657Z,1.67
2022-08-05T08:17:21.465Z,1.70
2022-08-05T08:20:45.293Z,1.50
2022-08-05T08:24:02.309Z,1.90
2022-08-05T08:27:06.907Z,1.98
2022-08-05T08:30:29.840Z,1.80
2022-08-05T08:33:37.610Z,1.38
2022-08-05T08:36:48.889Z,1.58
2022-08-05T08:39:54.153Z,1.33
2022-08-05T08:42:56.815Z,1.30
2022-08-05T08:46:01.476Z,1.50
2022-08-05T08:50:22.509Z,1.60
2022-08-05T08:52:32.192Z,1.60
2022-08-05T08:56:03.175Z,1.40
2022-08-05T08:58:59.246Z,1.40
2022-08-05T09:02:08.432Z,1.50
2022-08-05T09:05:17.605Z,1.10
2022-08-05T09:08:27.496Z,0.93
2022-08-05T09:11:52.204Z,1.30
2022-08-05T09:18:09.242Z,1.50
2022-08-05T09:21:11.804Z,1.00
2022-08-05T09:24:22.722Z,1.20
2022-08-05T09:28:04.504Z,1.23
2022-08-05T09:31:43.824Z,1.23
2022-08-05T09:34:26.254Z,1.30
2022-08-05T09:38:12.655Z,1.45
2022-08-05T09:40:52.240Z,1.30
2022-08-05T09:43:55.118Z,1.30
2022-08-05T09:47:10.366Z,1.40
2022-08-05T09:50:17.873Z,1.55
2022-08-05T09:53:22.869Z,1.55
2022-08-05T09:56:33.381Z,1.40
2022-08-05T09:59:37.320Z,1.63
2022-08-05T10:02:48.512Z,1.42
2022-08-05T10:06:15.800Z,1.60
2022-08-05T10:09:27.255Z,1.50
2022-08-05T10:12:33.810Z,1.17
2022-08-05T10:15:39.430Z,1.23
2022-08-05T10:18:43.035Z,1.50
2022-08-05T10:21:50.350Z,1.65
2022-08-05T10:24:52.406Z,1.70
2022-08-05T10:28:12.960Z,1.70
2022-08-05T10:32:50.604Z,1.50
2022-08-05T10:34:42.428Z,1.57
2022-08-05T10:37:45.264Z,1.27
2022-08-05T10:40:57.786Z,1.20
2022-08-05T10:44:05.127Z,1.48
2022-08-05T10:47:26.897Z,1.58
2022-08-05T10:50:36.909Z,1.05
2022-08-05T10:53:45.472Z,1.10
2022-08-05T10:56:57.626Z,1.23
2022-08-05T11:00:17.893Z,1.48
2022-08-05T11:03:24.677Z,1.40
2022-08-05T11:06:30.757Z,1.25
2022-08-05T11:10:03.996Z,1.83
2022-08-05T11:13:57.736Z,1.60
2022-08-05T11:18:00.250Z,1.48
2022-08-05T11:20:53.765Z,1.05
2022-08-05T11:24:05.571Z,1.20
2022-08-05T11:27:51.491Z,1.50
2022-08-05T11:30:58.410Z,1.40
2022-08-05T11:34:08.163Z,1.38
2022-08-05T11:38:37.399Z,1.60
2022-08-05T11:41:01.724Z,1.58
2022-08-05T11:44:40.494Z,1.48
2022-08-05T11:47:49.396Z,1.52
2022-08-05T11:50:53.470Z,1.30
2022-08-05T11:53:56.216Z,1.52
2022-08-05T11:56:58.020Z,1.50
2022-08-05T12:00:03.515Z,1.30
2022-08-05T12:03:23.765Z,1.52
2022-08-05T12:06:35.609Z,1.30
2022-08-05T12:09:53.209Z,1.52
2022-08-05T12:13:03.071Z,1.27
2022-08-05T12:16:25.456Z,1.30
2022-08-05T12:20:25.368Z,1.85
2022-08-05T12:22:51.869Z,1.35
2022-08-05T12:25:56.496Z,1.40
2022-08-05T12:28:58.570Z,1.33
2022-08-05T12:32:02.175Z,1.48
2022-08-05T12:35:05.287Z,1.20
2022-08-05T12:38:10.262Z,1.10
2022-08-05T12:41:14.605Z,0.93
2022-08-05T12:44:32.585Z,1.27
2022-08-05T12:47:36.464Z,1.50
2022-08-05T12:50:38.223Z,0.93
2022-08-05T12:53:44.633Z,1.30
2022-08-05T12:56:58.516Z,1.20
2022-08-05T13:01:58.500Z,1.20
2022-08-05T13:03:24.258Z,1.13
2022-08-05T13:06:33.841Z,1.30
2022-08-05T13:09:35.432Z,1.20
2022-08-05T13:12:42.712Z,1.50
2022-08-05T13:15:54.307Z,1.38
2022-08-05T13:22:00.775Z,1.67
2022-08-05T13:25:18.751Z,1.75
2022-08-05T13:28:21.806Z,1.55
2022-08-05T13:31:34.053Z,1.30
2022-08-05T13:34:45.229Z,1.50
2022-08-05T13:37:48.141Z,1.38
2022-08-05T13:40:57.477Z,1.48
2022-08-05T13:43:59.241Z,1.80
2022-08-05T13:47:04.607Z,1.77
2022-08-05T13:50:14.788Z,1.38
2022-08-05T13:53:19.260Z,1.98
2022-08-05T13:56:21.149Z,1.77
2022-08-05T13:59:24.050Z,1.80
2022-08-05T14:02:29.762Z,1.50
2022-08-05T14:06:24.468Z,1.40
2022-08-05T14:08:54.204Z,1.50
2022-08-05T14:12:04.200Z,1.50
2022-08-05T14:16:06.037Z,1.60
2022-08-05T14:18:39.543Z,1.35
2022-08-05T14:22:08.775Z,1.20
2022-08-05T14:25:06.486Z,1.50
2022-08-05T14:28:26.834Z,1.27
2022-08-05T14:32:02.505Z,1.60
2022-08-05T14:34:50.618Z,1.23
2022-08-05T14:37:55.458Z,1.55
2022-08-05T14:40:57.388Z,2.05
2022-08-05T14:44:09.642Z,1.50
2022-08-05T14:47:58.511Z,1.50
2022-08-05T14:50:42.611Z,1.40
2022-08-05T14:53:44.930Z,1.67
2022-08-05T14:56:47.220Z,1.95
2022-08-05T14:59:48.838Z,1.45
2022-08-05T15:02:50.757Z,1.35
2022-08-05T15:06:12.769Z,1.35
2022-08-05T15:09:14.115Z,1.83
2022-08-05T15:12:17.314Z,1.92
2022-08-05T15:15:54.993Z,1.67
2022-08-05T15:18:40.506Z,2.00
2022-08-05T15:21:42.868Z,1.70
2022-08-05T15:24:44.709Z,1.70
2022-08-05T15:27:52.274Z,2.83
2022-08-05T15:30:54.121Z,3.70
2022-08-05T15:34:18.316Z,2.55
2022-08-05T15:37:27.377Z,2.35
2022-08-05T15:41:03.400Z,2.17
2022-08-05T15:44:00.637Z,2.30
2022-08-05T15:47:03.542Z,2.13
2022-08-05T15:50:07.208Z,2.20
2022-08-05T15:53:09.245Z,2.30
2022-08-05T15:56:14.008Z,2.38
2022-08-05T15:59:22.255Z,2.97
2022-08-05T16:02:25.182Z,6.18
2022-08-05T16:05:28.149Z,3.17
2022-08-05T16:08:30.347Z,2.70
2022-08-05T16:11:43.021Z,4.53
2022-08-05T16:14:45.311Z,4.00
2022-08-05T16:21:04.563Z,4.97
2022-08-05T16:24:07.701Z,3.55
2022-08-05T16:27:32.120Z,2.78
2022-08-05T16:30:50.375Z,3.15
2022-08-05T16:33:52.496Z,3.45
2022-08-05T16:40:04.674Z,2.40
2022-08-05T16:43:06.940Z,2.25
2022-08-05T16:46:23.628Z,2.25
2022-08-05T16:49:26.439Z,2.83
2022-08-05T16:52:33.443Z,2.45
2022-08-05T16:55:46.906Z,2.25
2022-08-05T16:58:49.474Z,2.50
2022-08-05T17:01:52.866Z,2.17
2022-08-05T17:04:57.163Z,2.05
2022-08-05T17:07:58.711Z,2.40
2022-08-05T17:11:00.295Z,2.50
2022-08-05T17:14:05.744Z,1.98
2022-08-05T17:17:09.445Z,2.10
2022-08-05T17:20:16.488Z,1.95
2022-08-05T17:24:03.783Z,2.55
2022-08-05T17:26:40.948Z,1.95
2022-08-05T17:29:42.606Z,2.08
2022-08-05T17:32:44.221Z,1.83
2022-08-05T17:36:07.443Z,2.08
2022-08-05T17:39:24.335Z,2.15
2022-08-05T17:42:32.872Z,2.03
2022-08-05T17:45:38.575Z,1.90
2022-08-05T17:48:40.356Z,2.00
2022-08-05T17:51:46.459Z,2.10
2022-08-05T17:54:52.091Z,2.13
2022-08-05T17:57:54.091Z,2.13
2022-08-05T18:00:55.591Z,2.30
2022-08-05T18:04:04.673Z,2.25
2022-08-05T18:07:07.461Z,2.10
2022-08-05T18:10:21.136Z,2.40
2022-08-05T18:13:23.018Z,2.20
2022-08-05T18:16:27.339Z,2.20
2022-08-05T18:19:28.928Z,2.60
2022-08-05T18:22:36.408Z,2.38
2022-08-05T18:25:57.645Z,2.20
2022-08-05T18:29:01.032Z,2.60
2022-08-05T18:32:02.971Z,2.35
2022-08-05T18:35:05.307Z,3.35
2022-08-05T18:38:07.925Z,3.50
2022-08-05T18:41:55.076Z,2.97
2022-08-05T18:44:34.881Z,4.20
2022-08-05T18:47:37.953Z,4.00
2022-08-05T18:51:01.730Z,3.97
2022-08-05T18:54:19.934Z,3.35
2022-08-05T18:57:23.915Z,4.30
2022-08-05T19:00:29.235Z,3.30
2022-08-05T19:03:52.688Z,5.00
2022-08-05T19:06:53.557Z,3.58
2022-08-05T19:09:55.930Z,3.92
2022-08-05T19:12:57.797Z,4.60
2022-08-05T19:16:03.448Z,4.28
2022-08-05T19:19:05.415Z,4.35
2022-08-05T19:22:06.947Z,4.90
2022-08-05T19:25:10.603Z,5.03
2022-08-05T19:28:23.202Z,5.80
2022-08-05T19:31:26.165Z,6.03
2022-08-05T19:34:35.272Z,5.70
2022-08-05T19:38:04.755Z,5.50
2022-08-05T19:40:58.597Z,6.20
2022-08-05T19:44:13.455Z,6.00
2022-08-05T19:47:16.569Z,6.40
2022-08-05T19:50:19.910Z,5.57
2022-08-05T19:54:04.383Z,6.05
2022-08-05T19:56:43.245Z,6.10
2022-08-05T20:00:01.193Z,6.10
2022-08-05T20:03:14.011Z,4.57
2022-08-05T20:06:28.848Z,4.72
2022-08-05T20:09:30.839Z,5.13
2022-08-05T20:12:52.333Z,4.93
2022-08-05T20:15:56.823Z,4.72
2022-08-05T20:18:59.115Z,4.60
2022-08-05T20:22:03.967Z,4.68
2022-08-05T20:25:07.095Z,5.70
2022-08-05T20:28:13.749Z,5.05
2022-08-05T20:31:21.638Z,4.80
2022-08-05T20:34:24.645Z,4.30
2022-08-05T20:38:06.053Z,3.80
2022-08-05T20:40:47.858Z,4.65
2022-08-05T20:43:59.079Z,4.40
2022-08-05T20:47:07.400Z,4.65
2022-08-05T20:50:11.436Z,3.95
2022-08-05T20:53:16.149Z,4.70
2022-08-05T20:56:42.133Z,4.13
2022-08-05T20:59:46.253Z,4.80
2022-08-05T21:03:07.964Z,3.67
2022-08-05T21:06:28.449Z,4.85
2022-08-05T21:09:31.101Z,3.13
2022-08-05T21:12:36.169Z,3.75
2022-08-05T21:15:37.695Z,4.37
2022-08-05T21:18:39.228Z,4.28
2022-08-05T21:21:50.551Z,4.18
2022-08-05T21:24:54.260Z,3.65
2022-08-05T21:27:56.396Z,4.13
2022-08-05T21:30:58.827Z,3.93
2022-08-05T21:34:00.296Z,3.78
2022-08-05T21:37:04.677Z,3.70
2022-08-05T21:40:07.146Z,3.95
2022-08-05T21:43:17.755Z,3.80
2022-08-05T21:46:27.503Z,3.58
2022-08-05T21:49:48.435Z,4.18
2022-08-05T21:52:58.943Z,4.30
2022-08-05T21:56:16.320Z,3.88
2022-08-05T21:59:24.137Z,3.00
2022-08-05T22:02:27.908Z,3.25
2022-08-05T22:05:29.386Z,3.28
2022-08-05T22:08:52.460Z,3.50
2022-08-05T22:11:54.615Z,4.30
2022-08-05T22:14:57.040Z,3.17
2022-08-05T22:18:00.225Z,3.45
2022-08-05T22:21:04.079Z,2.55
2022-08-05T22:24:40.284Z,2.88
2022-08-05T22:28:09.109Z,2.28
2022-08-05T22:31:09.373Z,2.97
2022-08-05T22:34:25.594Z,3.25
2022-08-05T22:37:58.175Z,3.00
2022-08-05T22:40:54.843Z,2.40
2022-08-05T22:43:59.185Z,2.42
2022-08-05T22:47:00.844Z,2.45
2022-08-05T22:50:23.048Z,2.10
2022-08-05T22:53:35.539Z,1.85
2022-08-05T22:56:39.974Z,1.70
2022-08-05T22:59:45.057Z,1.65
2022-08-05T23:02:53.127Z,1.50
2022-08-05T23:05:55.714Z,1.52
2022-08-05T23:08:57.266Z,1.77
2022-08-05T23:12:20.190Z,1.23
2022-08-05T23:15:29.483Z,1.08
2022-08-05T23:18:36.263Z,1.20
2022-08-05T23:21:42.935Z,1.17
2022-08-05T23:24:51.301Z,1.35
2022-08-05T23:28:00.281Z,1.10
2022-08-05T23:31:16.281Z,1.10
2022-08-05T23:34:24.500Z,1.13
2022-08-05T23:37:26.697Z,1.00
2022-08-05T23:40:35.845Z,1.10
2022-08-05T23:44:04.665Z,1.10
2022-08-05T23:47:02.634Z,1.30
2022-08-05T23:50:17.119Z,1.08
2022-08-05T23:53:22.920Z,1.27
2022-08-05T23:56:27.507Z,1.60
